Time;durP1;ratioP1;P1;durP2;ratioP2;P2;SDS_P1;SDS_P2;PMS_P1;PMS_P2;Temp;Humidity;BMP_temperature;BMP_pressure;BME280_temperature;BME280_humidity;BME280_pressure;Samples;Min_cycle;Max_cycle;Signal;HPM_P1;HPM_P2
2022/03/18 00:00:07;;;;;;;10.63;7.72;;;;;;;2.75;68.11;96518.34;4860788;29;20579;-78
2022/03/18 00:02:32;;;;;;;10.93;7.45;;;;;;;2.82;66.86;96521.97;4899584;29;20043;-77
2022/03/18 00:04:58;;;;;;;8.43;7.47;;;;;;;2.78;67.65;96512.94;4912780;29;20036;-77
2022/03/18 00:07:23;;;;;;;9.82;8.57;;;;;;;2.66;67.81;96519.19;4915761;29;20040;-77
2022/03/18 00:09:49;;;;;;;18.30;8.20;;;;;;;2.66;67.42;96522.56;4899327;29;20028;-77
2022/03/18 00:12:14;;;;;;;8.63;7.78;;;;;;;2.50;67.43;96524.13;4916230;29;20055;-77
2022/03/18 00:14:40;;;;;;;10.77;8.55;;;;;;;2.37;67.77;96532.09;4914882;29;20408;-77
2022/03/18 00:17:06;;;;;;;11.85;8.40;;;;;;;2.29;68.01;96527.69;4899105;29;20039;-77
2022/03/18 00:19:33;;;;;;;10.85;8.63;;;;;;;2.25;67.69;96539.16;4914508;29;20044;-77
2022/03/18 00:22:01;;;;;;;8.88;8.07;;;;;;;2.23;67.57;96525.66;4898921;29;20032;-77
2022/03/18 00:24:27;;;;;;;10.68;9.18;;;;;;;2.03;67.92;96542.03;4898922;29;20036;-77
2022/03/18 00:26:52;;;;;;;13.38;10.07;;;;;;;1.92;68.03;96539.59;4898818;29;20067;-77
2022/03/18 00:29:18;;;;;;;17.27;10.32;;;;;;;1.98;68.29;96545.00;4913683;29;20036;-77
2022/03/18 00:31:43;;;;;;;12.60;10.25;;;;;;;2.08;67.75;96550.13;4898813;29;20024;-76
2022/03/18 00:34:10;;;;;;;17.95;10.98;;;;;;;2.03;68.19;96547.16;4883208;29;20028;-76
2022/03/18 00:36:36;;;;;;;12.05;10.43;;;;;;;2.05;67.93;96550.38;4898743;29;20051;-77
2022/03/18 00:39:01;;;;;;;17.02;10.57;;;;;;;2.12;68.10;96543.78;4882466;29;20059;-76
2022/03/18 00:41:27;;;;;;;19.40;11.05;;;;;;;2.10;68.50;96554.16;4914651;29;20024;-76
2022/03/18 00:43:53;;;;;;;15.52;10.45;;;;;;;2.21;68.14;96545.50;4914412;29;20047;-76
2022/03/18 00:46:22;;;;;;;13.48;10.40;;;;;;;2.37;67.65;96548.31;4898773;29;20040;-76
2022/03/18 00:54:18;;;;;;;16.25;11.57;;;;;;;2.20;67.53;96553.34;4915244;29;20039;-77
2022/03/18 00:56:43;;;;;;;14.98;11.27;;;;;;;2.26;67.61;96553.59;4914242;29;20408;-77
2022/03/18 00:59:10;;;;;;;14.20;11.05;;;;;;;2.27;67.47;96560.34;4915278;29;20501;-76
2022/03/18 01:01:35;;;;;;;16.15;11.13;;;;;;;2.37;67.10;96563.72;4915241;29;20040;-76
2022/03/18 01:04:01;;;;;;;14.50;10.88;;;;;;;2.28;67.23;96566.31;4890815;29;20119;-76
2022/03/18 01:06:26;;;;;;;14.98;12.02;;;;;;;2.12;67.44;96572.00;4913897;29;20107;-76
2022/03/18 01:08:52;;;;;;;17.90;11.65;;;;;;;2.07;67.77;96569.03;4897775;29;20036;-77
2022/03/18 01:11:17;;;;;;;14.52;11.25;;;;;;;2.14;66.93;96570.13;4898458;29;20020;-77
2022/03/18 01:13:43;;;;;;;18.77;12.55;;;;;;;2.11;66.68;96567.78;4915176;29;20032;-77
2022/03/18 01:16:08;;;;;;;16.20;11.77;;;;;;;2.12;66.64;96577.16;4915346;29;20036;-77
2022/03/18 01:18:34;;;;;;;16.50;11.23;;;;;;;2.10;66.50;96566.97;4913785;29;20047;-77
2022/03/18 01:20:59;;;;;;;20.90;11.75;;;;;;;2.04;67.03;96564.16;4915562;29;20028;-77
2022/03/18 01:23:25;;;;;;;21.52;12.57;;;;;;;2.06;67.07;96568.22;4915629;29;20025;-77
2022/03/18 01:25:50;;;;;;;15.88;11.85;;;;;;;2.13;66.74;96568.50;4882622;29;20043;-77
2022/03/18 01:28:16;;;;;;;14.98;11.90;;;;;;;2.12;66.54;96571.19;4914767;29;20044;-77
2022/03/18 01:30:41;;;;;;;14.57;11.07;;;;;;;1.99;65.95;96566.34;4897901;29;20650;-77
2022/03/18 01:33:07;;;;;;;14.35;11.48;;;;;;;1.91;65.40;96572.13;4881440;29;20044;-77
2022/03/18 01:35:32;;;;;;;17.60;11.00;;;;;;;1.94;64.30;96563.34;4912821;29;20036;-76
2022/03/18 01:37:58;;;;;;;17.00;11.50;;;;;;;1.88;63.94;96563.91;4914515;29;20097;-76
2022/03/18 01:40:23;;;;;;;16.65;11.98;;;;;;;1.78;65.23;96564.69;4915522;29;20036;-76
2022/03/18 01:42:49;;;;;;;17.88;10.50;;;;;;;1.84;64.74;96560.00;4915188;29;20091;-76
2022/03/18 01:45:14;;;;;;;17.98;11.65;;;;;;;1.89;65.52;96563.75;4913232;29;20123;-76
2022/03/18 01:47:44;;;;;;;16.88;11.32;;;;;;;1.90;65.08;96574.84;4913301;29;20028;-76
2022/03/18 01:50:13;;;;;;;17.98;11.88;;;;;;;1.86;64.31;96576.06;4898267;29;20095;-76
2022/03/18 01:52:38;;;;;;;16.63;11.38;;;;;;;1.59;65.23;96564.69;4914374;29;20028;-76
2022/03/18 01:55:04;;;;;;;16.30;11.55;;;;;;;1.56;64.93;96575.22;4897679;29;20066;-76
2022/03/18 02:00:04;;;;;;;16.38;12.05;;;;;;;1.76;62.94;96576.84;4973866;23;20052;-77
2022/03/18 02:02:29;;;;;;;17.02;11.50;;;;;;;1.87;62.67;96581.03;4914214;29;20028;-76
2022/03/18 02:04:54;;;;;;;13.85;10.27;;;;;;;1.96;62.14;96582.00;4914575;29;20123;-76
2022/03/18 02:07:20;;;;;;;15.75;11.18;;;;;;;1.91;61.27;96584.94;4913041;29;20104;-76
2022/03/18 02:09:45;;;;;;;15.38;11.05;;;;;;;2.01;60.82;96588.34;5134578;23;20041;-76
2022/03/18 02:12:11;;;;;;;16.77;9.98;;;;;;;2.00;61.44;96583.34;4933163;29;20039;-76
2022/03/18 02:14:41;;;;;;;12.68;9.73;;;;;;;1.93;60.80;96579.69;4922722;29;20036;-76
2022/03/18 02:17:08;;;;;;;13.45;10.60;;;;;;;1.95;60.99;96577.78;4897567;29;20055;-78
2022/03/18 02:19:34;;;;;;;13.05;10.13;;;;;;;2.00;60.54;96578.22;4896125;29;20032;-77
2022/03/18 02:22:00;;;;;;;18.77;10.38;;;;;;;1.83;61.10;96578.88;4892818;29;20043;-76
2022/03/18 02:24:25;;;;;;;18.30;10.75;;;;;;;1.82;61.21;96588.34;4913885;29;20373;-76
2022/03/18 02:26:51;;;;;;;11.98;9.65;;;;;;;1.74;61.56;96589.00;4914221;29;20511;-77
2022/03/18 02:29:21;;;;;;;14.07;10.23;;;;;;;1.69;61.79;96583.47;4913065;29;20536;-77
2022/03/18 02:31:46;;;;;;;17.88;10.40;;;;;;;1.66;62.67;96588.84;4913876;29;20028;-77
2022/03/18 02:34:12;;;;;;;16.33;10.35;;;;;;;1.71;62.76;96586.69;4912675;29;20100;-76
2022/03/18 02:36:37;;;;;;;23.02;11.30;;;;;;;1.49;63.27;96595.44;4913163;29;20032;-76
2022/03/18 02:39:03;;;;;;;12.90;9.80;;;;;;;1.58;63.25;96598.94;4896397;29;20040;-76
2022/03/18 02:41:29;;;;;;;12.88;10.32;;;;;;;1.64;63.51;96602.75;4913372;29;20028;-76
2022/03/18 02:43:54;;;;;;;17.23;10.40;;;;;;;1.58;63.70;96604.09;4913748;29;20040;-76
2022/03/18 02:48:49;;;;;;;17.60;12.20;;;;;;;1.60;64.88;96607.31;4941322;23;20130;-76
2022/03/18 02:51:14;;;;;;;15.98;11.85;;;;;;;1.63;65.59;96616.53;4914219;29;20024;-76
2022/03/18 02:53:39;;;;;;;16.98;11.65;;;;;;;1.42;66.06;96612.28;4912277;29;20453;-76
2022/03/18 02:56:06;;;;;;;18.27;10.68;;;;;;;1.22;67.32;96613.16;4896639;29;20068;-76
2022/03/18 02:58:32;;;;;;;17.40;11.95;;;;;;;1.26;67.63;96617.06;4913516;29;20119;-76
2022/03/18 03:00:57;;;;;;;15.05;10.75;;;;;;;1.45;67.09;96612.00;4913656;29;20119;-77
2022/03/18 03:03:23;;;;;;;25.27;11.63;;;;;;;1.51;66.73;96620.94;4880626;29;20405;-76
2022/03/18 03:08:32;;;;;;;15.95;11.35;;;;;;;1.49;66.91;96625.41;4912761;29;20068;-76
2022/03/18 03:10:58;;;;;;;18.50;12.85;;;;;;;1.49;67.52;96640.78;4913342;29;20040;-76
2022/03/18 03:13:24;;;;;;;14.68;11.80;;;;;;;1.53;66.72;96624.19;4913643;29;20035;-77
2022/03/18 03:15:50;;;;;;;17.98;13.15;;;;;;;1.32;67.59;96633.72;4880849;29;20040;-76
2022/03/18 03:18:15;;;;;;;15.98;11.32;;;;;;;1.24;65.58;96641.22;4896332;29;20393;-76
2022/03/18 03:20:40;;;;;;;11.35;9.60;;;;;;;1.08;66.31;96621.19;4896115;29;20039;-76
2022/03/18 03:23:06;;;;;;;12.68;9.65;;;;;;;1.02;65.86;96627.66;4912551;29;20048;-76
2022/03/18 03:25:31;;;;;;;15.55;10.38;;;;;;;1.11;65.23;96634.56;4913523;29;20036;-76
2022/03/18 03:27:57;;;;;;;13.57;9.15;;;;;;;1.10;65.39;96635.50;4911975;29;20491;-76
2022/03/18 03:30:22;;;;;;;14.82;9.45;;;;;;;1.27;64.97;96640.94;4913072;29;20036;-77
2022/03/18 03:32:48;;;;;;;13.55;10.13;;;;;;;1.25;64.88;96648.78;4912191;29;20043;-77
2022/03/18 03:35:15;;;;;;;13.82;10.23;;;;;;;1.10;65.28;96655.19;4913011;29;20457;-75
2022/03/18 03:37:41;;;;;;;11.30;9.68;;;;;;;1.14;65.59;96647.13;4911780;29;20091;-74
2022/03/18 03:40:07;;;;;;;17.52;11.73;;;;;;;1.14;65.39;96651.44;4895762;29;20036;-76
2022/03/18 03:42:33;;;;;;;17.38;11.05;;;;;;;1.29;65.69;96657.00;4912274;29;20036;-76
2022/03/18 03:44:58;;;;;;;14.90;10.82;;;;;;;1.26;65.75;96644.47;4911629;29;20043;-76
2022/03/18 03:47:23;;;;;;;13.43;11.35;;;;;;;1.30;65.77;96653.50;4896144;29;20056;-76
2022/03/18 03:49:49;;;;;;;12.20;10.90;;;;;;;1.24;66.19;96656.59;4911296;29;20123;-76
2022/03/18 03:52:14;;;;;;;15.02;11.82;;;;;;;1.18;66.62;96663.06;4896027;29;21082;-76
2022/03/18 03:54:42;;;;;;;16.15;12.57;;;;;;;1.03;66.98;96654.88;4895588;29;20043;-76
2022/03/18 03:57:08;;;;;;;22.27;13.60;;;;;;;1.04;67.25;96661.63;4881108;29;20492;-76
2022/03/18 03:59:34;;;;;;;17.67;13.27;;;;;;;1.13;67.01;96665.16;4887944;29;20052;-76
2022/03/18 04:01:59;;;;;;;27.45;14.90;;;;;;;1.20;67.33;96676.53;4895511;29;20032;-76
2022/03/18 04:04:31;;;;;;;21.83;13.85;;;;;;;1.25;66.97;96676.97;4911639;29;20051;-76
2022/03/18 04:06:57;;;;;;;22.23;13.55;;;;;;;1.26;66.39;96672.66;4911282;29;20044;-76
2022/03/18 04:09:22;;;;;;;13.63;11.32;;;;;;;1.09;66.52;96674.88;4912672;29;20496;-77
2022/03/18 04:11:48;;;;;;;16.08;13.07;;;;;;;1.09;66.63;96684.28;4912685;29;20032;-77
2022/03/18 04:14:13;;;;;;;20.98;13.70;;;;;;;0.95;67.73;96682.88;4909612;29;20460;-77
2022/03/18 04:16:39;;;;;;;17.23;12.60;;;;;;;1.06;67.06;96690.50;4914597;29;20451;-77
2022/03/18 04:19:04;;;;;;;21.60;14.20;;;;;;;1.12;67.09;96682.28;4912118;29;20039;-77
2022/03/18 04:21:30;;;;;;;19.92;14.27;;;;;;;1.20;66.41;96690.16;4911148;29;20043;-77
2022/03/18 04:23:55;;;;;;;18.50;12.68;;;;;;;1.38;66.08;96694.69;4910538;29;20048;-76
2022/03/18 04:26:21;;;;;;;18.30;13.15;;;;;;;1.48;65.75;96690.44;4911192;29;20024;-76
2022/03/18 04:28:46;;;;;;;17.42;13.90;;;;;;;1.52;64.62;96696.09;4895792;29;20120;-76
2022/03/18 04:31:11;;;;;;;14.63;12.07;;;;;;;1.68;64.12;96704.94;4912449;29;20032;-76
2022/03/18 04:33:37;;;;;;;15.35;11.68;;;;;;;1.54;63.74;96696.78;4911696;29;20532;-76
2022/03/18 04:36:03;;;;;;;17.63;11.55;;;;;;;1.54;63.71;96700.16;4912196;29;20036;-76
2022/03/18 04:38:29;;;;;;;15.15;12.07;;;;;;;1.36;64.01;96692.25;4910985;29;20036;-76
2022/03/18 04:40:54;;;;;;;17.02;10.93;;;;;;;1.38;63.86;96689.56;4910982;29;20519;-77
2022/03/18 04:43:20;;;;;;;19.65;11.70;;;;;;;1.25;63.45;96696.66;4911975;29;20028;-76
2022/03/18 04:45:45;;;;;;;12.10;10.85;;;;;;;1.22;63.71;96702.84;4883229;29;20475;-76
2022/03/18 04:48:11;;;;;;;14.07;10.23;;;;;;;1.31;63.71;96701.28;4914194;29;20055;-77
2022/03/18 04:50:36;;;;;;;15.73;10.55;;;;;;;1.32;63.20;96702.91;4926022;29;20036;-78
2022/03/18 04:53:01;;;;;;;14.73;10.90;;;;;;;1.22;63.94;96704.59;4919461;29;20056;-77
2022/03/18 04:55:27;;;;;;;14.68;10.05;;;;;;;1.33;63.21;96704.53;4899225;29;20047;-79
2022/03/18 04:57:52;;;;;;;26.15;10.25;;;;;;;1.33;63.58;96707.09;4899533;29;20032;-76
2022/03/18 05:00:20;;;;;;;13.52;10.13;;;;;;;1.39;62.71;96715.06;4914609;29;20031;-76
2022/03/18 05:02:45;;;;;;;14.88;9.95;;;;;;;1.42;62.75;96714.00;4916013;29;20038;-77
2022/03/18 05:05:11;;;;;;;15.13;10.88;;;;;;;1.42;62.75;96721.69;4898867;29;20412;-77
2022/03/18 05:07:40;;;;;;;11.98;10.68;;;;;;;1.64;62.08;96720.72;4898334;29;20044;-76
2022/03/18 05:10:07;;;;;;;16.30;11.23;;;;;;;1.71;62.32;96722.63;4914023;29;20055;-76
2022/03/18 05:12:32;;;;;;;15.10;10.82;;;;;;;1.55;62.83;96719.72;4913822;29;20028;-76
2022/03/18 05:14:58;;;;;;;16.38;11.27;;;;;;;1.52;63.15;96727.69;4898353;29;20039;-77
2022/03/18 05:17:23;;;;;;;17.98;12.00;;;;;;;1.48;63.19;96731.44;4914084;29;20048;-76
2022/03/18 05:19:49;;;;;;;13.73;11.43;;;;;;;1.58;62.79;96732.28;4904985;29;20032;-75
2022/03/18 05:22:14;;;;;;;13.73;11.55;;;;;;;1.56;62.56;96728.22;4914767;29;20488;-76
2022/03/18 05:24:40;;;;;;;16.67;11.50;;;;;;;1.84;62.31;96731.84;4882827;29;20088;-71
2022/03/18 05:27:05;;;;;;;18.65;11.48;;;;;;;1.85;62.21;96723.19;4914022;29;20040;-75
2022/03/18 05:29:31;;;;;;;19.33;12.10;;;;;;;2.05;60.75;96732.56;4913774;29;20036;-76
2022/03/18 05:31:57;;;;;;;13.18;10.27;;;;;;;2.19;60.43;96737.31;4913427;29;20455;-77
2022/03/18 05:34:23;;;;;;;16.23;10.20;;;;;;;2.39;59.16;96738.97;4913787;29;20523;-76
2022/03/18 05:36:49;;;;;;;15.98;11.50;;;;;;;2.57;58.90;96735.72;4915190;29;20036;-75
2022/03/18 05:39:15;;;;;;;17.92;11.20;;;;;;;2.55;58.84;96737.63;4898223;29;20036;-77
2022/03/18 05:41:43;;;;;;;19.48;11.20;;;;;;;2.77;59.06;96737.38;4912716;29;20112;-78
2022/03/18 05:44:08;;;;;;;15.07;9.57;;;;;;;3.33;56.76;96728.88;4915928;29;20464;-76
2022/03/18 05:46:34;;;;;;;18.45;10.38;;;;;;;3.53;56.12;96735.59;4898087;29;20059;-76
2022/03/18 05:48:59;;;;;;;14.52;10.77;;;;;;;3.82;55.61;96739.81;4912592;29;20051;-75
2022/03/18 05:51:25;;;;;;;18.38;9.45;;;;;;;3.96;54.42;96739.34;4897215;29;20073;-75
2022/03/18 05:53:50;;;;;;;26.50;11.10;;;;;;;4.49;53.55;96748.91;4899057;29;20044;-74
2022/03/18 05:58:59;;;;;;;17.77;11.60;;;;;;;4.90;51.42;96746.72;4912694;29;20039;-76
2022/03/18 06:01:25;;;;;;;20.63;11.85;;;;;;;4.82;51.57;96747.44;4911590;29;20050;-76
2022/03/18 06:03:51;;;;;;;20.67;11.70;;;;;;;4.70;52.21;96746.84;4912733;29;20040;-74
2022/03/18 06:06:16;;;;;;;16.00;11.75;;;;;;;4.50;51.96;96750.53;4881249;29;20499;-76
2022/03/18 06:14:10;;;;;;;14.60;10.57;;;;;;;3.86;53.71;96767.69;4913447;29;20050;-76
2022/03/18 06:16:37;;;;;;;18.65;11.15;;;;;;;3.88;53.91;96775.25;4912112;29;20040;-76
2022/03/18 06:19:03;;;;;;;23.05;11.23;;;;;;;3.57;54.93;96777.25;4910706;29;20063;-75
2022/03/18 06:21:28;;;;;;;24.77;11.30;;;;;;;2.93;55.81;96789.03;4896629;29;20500;-75
2022/03/18 06:23:54;;;;;;;16.17;10.57;;;;;;;2.58;56.54;96793.84;4896107;29;20488;-76
2022/03/18 06:26:19;;;;;;;14.93;10.18;;;;;;;2.31;57.62;96803.00;4912234;29;20047;-75
2022/03/18 06:28:45;;;;;;;26.00;11.02;;;;;;;2.56;57.03;96811.16;4911742;29;20040;-75
2022/03/18 06:31:10;;;;;;;12.07;9.65;;;;;;;2.40;57.04;96803.97;4911975;29;20040;-75
2022/03/18 06:33:44;;;;;;;15.10;9.23;;;;;;;2.38;57.11;96813.56;4913169;29;20032;-75
2022/03/18 06:36:11;;;;;;;12.70;9.18;;;;;;;2.19;57.26;96814.31;4911772;29;20044;-75
2022/03/18 06:38:36;;;;;;;14.75;9.57;;;;;;;2.34;56.88;96823.28;4912720;29;20552;-75
2022/03/18 06:41:02;;;;;;;12.98;10.02;;;;;;;2.57;56.29;96823.03;4895836;29;20095;-75
2022/03/18 06:43:27;;;;;;;19.20;9.88;;;;;;;2.80;55.84;96823.63;4911633;29;20091;-75
2022/03/18 06:45:52;;;;;;;11.15;8.25;;;;;;;2.85;55.41;96826.59;4911297;29;20039;-75
2022/03/18 06:48:18;;;;;;;18.20;8.82;;;;;;;2.54;55.93;96823.31;4895266;29;20040;-75
2022/03/18 06:50:49;;;;;;;20.02;9.57;;;;;;;2.29;56.83;96822.88;4911246;29;20438;-75
2022/03/18 06:53:14;;;;;;;14.95;9.05;;;;;;;2.52;56.50;96840.63;4896152;29;20032;-75
2022/03/18 06:55:40;;;;;;;17.52;9.23;;;;;;;2.96;55.64;96829.06;4911333;29;20038;-75
2022/03/18 06:58:05;;;;;;;11.40;8.40;;;;;;;3.26;52.52;96835.81;4912480;29;20510;-75
2022/03/18 07:00:30;;;;;;;10.15;8.45;;;;;;;3.57;49.73;96834.66;4895622;29;20445;-76
2022/03/18 07:02:56;;;;;;;15.98;8.07;;;;;;;3.85;47.81;96839.88;4895435;29;20039;-75
2022/03/18 07:05:21;;;;;;;9.25;7.57;;;;;;;3.53;47.53;96842.81;4911404;29;20048;-75
2022/03/18 07:07:48;;;;;;;7.32;6.60;;;;;;;3.23;48.00;96856.63;4910145;29;20137;-75
2022/03/18 07:10:13;;;;;;;17.67;7.32;;;;;;;3.07;48.67;96856.34;4895858;29;20032;-76
2022/03/18 07:12:39;;;;;;;8.10;6.82;;;;;;;3.24;47.27;96851.34;4881255;29;20059;-75
2022/03/18 07:15:06;;;;;;;10.32;6.07;;;;;;;3.74;45.65;96846.03;4895665;29;20048;-76
2022/03/18 07:20:15;;;;;;;17.63;9.38;;;;;;;3.72;48.04;96862.53;4911209;29;20031;-76
2022/03/18 07:22:41;;;;;;;14.40;7.65;;;;;;;3.53;48.55;96853.91;4911235;29;20044;-76
2022/03/18 07:25:07;;;;;;;9.75;8.52;;;;;;;3.99;48.05;96842.00;4895538;29;20781;-76
2022/03/18 07:27:32;;;;;;;14.45;8.25;;;;;;;4.36;47.11;96861.78;4911058;29;20074;-76
2022/03/18 07:29:58;;;;;;;9.98;7.53;;;;;;;4.35;45.11;96850.66;4912404;29;20416;-77
2022/03/18 07:32:23;;;;;;;11.23;7.68;;;;;;;4.36;44.04;96856.63;4911630;29;20039;-76
2022/03/18 07:34:50;;;;;;;9.85;7.50;;;;;;;4.40;42.70;96853.66;4912016;29;20040;-76
2022/03/18 07:37:15;;;;;;;10.45;7.75;;;;;;;4.81;42.85;96859.22;4910680;29;20036;-76
2022/03/18 07:39:41;;;;;;;10.60;6.78;;;;;;;4.90;41.85;96854.97;4894998;29;20496;-76
2022/03/18 07:42:06;;;;;;;8.93;6.65;;;;;;;5.20;41.39;96862.34;4912021;29;20460;-76
2022/03/18 07:44:32;;;;;;;14.07;7.68;;;;;;;5.19;41.93;96860.72;4911069;29;20485;-76
2022/03/18 07:46:57;;;;;;;7.55;6.75;;;;;;;5.42;41.25;96856.75;4911880;29;20100;-76
2022/03/18 07:49:22;;;;;;;12.30;8.00;;;;;;;5.87;39.82;96855.78;4911755;29;20040;-77
2022/03/18 07:51:48;;;;;;;10.07;7.70;;;;;;;6.21;40.35;96855.00;4895299;29;20029;-76
2022/03/18 07:54:13;;;;;;;8.77;7.47;;;;;;;6.44;39.67;96853.50;4912197;29;20091;-76
2022/03/18 07:56:39;;;;;;;9.48;7.03;;;;;;;6.49;38.07;96864.16;4895375;29;20032;-76
2022/03/18 07:59:04;;;;;;;8.85;7.15;;;;;;;6.70;38.49;96868.13;4910562;29;20043;-76
2022/03/18 08:01:30;;;;;;;10.52;7.30;;;;;;;6.69;39.62;96871.69;4895104;29;20028;-77
2022/03/18 08:03:55;;;;;;;13.40;6.88;;;;;;;6.82;38.78;96869.44;4894792;29;20044;-77
2022/03/18 08:06:21;;;;;;;12.98;7.15;;;;;;;7.08;38.63;96872.75;4909845;29;20535;-76
2022/03/18 08:08:46;;;;;;;9.45;6.88;;;;;;;6.91;37.54;96865.91;4891274;29;20091;-76
2022/03/18 08:11:12;;;;;;;8.30;6.80;;;;;;;6.40;37.87;96879.81;4911772;29;20115;-76
2022/03/18 08:13:37;;;;;;;15.57;6.68;;;;;;;6.31;38.33;96868.59;4911960;29;20476;-76
2022/03/18 08:16:04;;;;;;;18.63;7.07;;;;;;;6.34;38.58;96863.13;4909704;29;20040;-76
2022/03/18 08:18:29;;;;;;;8.68;6.93;;;;;;;6.31;38.29;96864.25;4895084;29;20028;-77
2022/03/18 08:20:55;;;;;;;8.40;6.80;;;;;;;6.60;37.42;96858.72;4915754;29;20040;-75
2022/03/18 08:23:20;;;;;;;12.48;7.10;;;;;;;6.97;37.30;96867.84;4913096;29;20032;-77
2022/03/18 08:25:46;;;;;;;14.88;7.20;;;;;;;7.12;36.29;96863.69;4895520;29;20534;-76
2022/03/18 08:28:11;;;;;;;11.52;7.22;;;;;;;6.74;35.68;96869.44;4898513;29;20036;-76
2022/03/18 08:30:38;;;;;;;17.08;6.88;;;;;;;6.80;35.01;96876.53;4915364;29;20056;-76
2022/03/18 08:33:03;;;;;;;8.63;6.57;;;;;;;6.56;35.45;96857.41;4883088;29;20136;-76
2022/03/18 08:35:29;;;;;;;13.20;6.55;;;;;;;6.71;36.06;96872.34;4917377;29;20655;-77
2022/03/18 08:37:57;;;;;;;9.10;6.63;;;;;;;6.72;35.23;96866.19;4899842;29;20036;-76
2022/03/18 08:40:28;;;;;;;16.30;7.05;;;;;;;6.27;36.17;96877.63;4899248;29;20034;-76
2022/03/18 08:42:57;;;;;;;10.32;7.35;;;;;;;6.20;35.95;96866.31;4897370;29;20545;-77
2022/03/18 08:45:23;;;;;;;9.80;6.95;;;;;;;6.58;36.02;96858.06;4897988;29;20032;-76
2022/03/18 08:47:48;;;;;;;9.32;6.40;;;;;;;6.62;33.73;96861.13;4913699;29;20481;-76
2022/03/18 08:50:14;;;;;;;11.57;7.18;;;;;;;6.75;33.93;96855.53;4914304;29;20032;-76
2022/03/18 08:52:40;;;;;;;10.02;6.63;;;;;;;6.92;33.44;96862.38;4898278;29;20138;-76
2022/03/18 08:55:07;;;;;;;10.18;6.80;;;;;;;6.57;33.48;96868.56;4897568;29;20032;-76
2022/03/18 08:57:35;;;;;;;8.25;6.63;;;;;;;6.50;34.21;96852.03;4914078;29;20091;-77
2022/03/18 09:00:00;;;;;;;13.48;7.03;;;;;;;6.89;33.81;96849.75;4915403;29;20024;-75
2022/03/18 09:02:26;;;;;;;9.70;7.10;;;;;;;7.04;34.15;96845.59;4914708;29;20204;-76
2022/03/18 09:04:52;;;;;;;9.38;6.93;;;;;;;7.17;33.61;96853.69;4914206;29;20040;-76
2022/03/18 09:07:18;;;;;;;12.18;6.82;;;;;;;7.30;32.70;96860.16;4915130;29;20039;-77
2022/03/18 09:09:44;;;;;;;9.57;6.72;;;;;;;7.05;32.72;96856.72;4913514;29;20037;-76
2022/03/18 09:12:09;;;;;;;8.70;6.57;;;;;;;6.63;32.87;96849.84;4882507;29;20028;-76
2022/03/18 09:14:35;;;;;;;16.42;7.00;;;;;;;6.83;33.06;96852.94;4913823;29;20035;-76
2022/03/18 09:17:00;;;;;;;13.85;7.70;;;;;;;6.40;33.86;96852.19;4913954;29;20131;-75
2022/03/18 09:19:26;;;;;;;9.05;6.63;;;;;;;6.67;33.74;96853.75;4914451;29;20044;-76
2022/03/18 09:21:51;;;;;;;8.32;6.75;;;;;;;6.48;34.61;96854.78;4912255;29;20032;-76
2022/03/18 09:24:17;;;;;;;12.25;8.20;;;;;;;6.53;34.78;96852.56;4913087;29;20389;-76
2022/03/18 09:26:43;;;;;;;9.63;8.20;;;;;;;6.70;34.31;96858.59;4896709;29;20028;-76
2022/03/18 09:29:08;;;;;;;14.25;9.40;;;;;;;7.04;34.20;96855.13;4896162;29;20043;-76
2022/03/18 09:31:33;;;;;;;10.50;7.07;;;;;;;7.33;33.46;96854.66;4914530;29;20425;-79
2022/03/18 09:33:59;;;;;;;12.52;7.85;;;;;;;7.15;32.89;96872.91;4914721;29;20078;-77
2022/03/18 09:36:25;;;;;;;15.73;7.28;;;;;;;6.70;32.97;96852.63;4914403;29;20028;-76
2022/03/18 09:38:50;;;;;;;15.75;7.50;;;;;;;6.21;34.38;96845.50;4897389;29;20122;-76
2022/03/18 09:41:16;;;;;;;9.45;7.20;;;;;;;6.25;34.00;96851.97;4913281;29;20036;-76
2022/03/18 09:43:42;;;;;;;14.52;7.18;;;;;;;6.12;33.93;96853.34;4897055;29;20036;-76
2022/03/18 09:46:09;;;;;;;10.63;6.88;;;;;;;5.75;34.66;96851.81;4914432;29;20036;-75
2022/03/18 09:48:51;;;;;;;9.32;7.18;;;;;;;5.69;35.01;96858.41;4897391;29;20067;-76
2022/03/18 09:51:17;;;;;;;10.57;7.10;;;;;;;5.89;35.35;96840.94;4885289;29;20048;-76
2022/03/18 09:53:43;;;;;;;10.70;6.97;;;;;;;6.12;34.80;96843.00;4913835;29;20449;-75
2022/03/18 09:56:08;;;;;;;10.68;7.68;;;;;;;5.91;35.96;96846.78;4913385;29;20039;-76
2022/03/18 09:58:34;;;;;;;11.57;7.97;;;;;;;5.07;37.57;96843.88;4895575;29;20032;-75
2022/03/18 10:01:01;;;;;;;13.48;9.23;;;;;;;5.24;37.36;96850.78;4912840;29;20043;-76
2022/03/18 10:03:42;;;;;;;12.80;8.85;;;;;;;5.38;37.45;96855.44;4882884;29;20408;-76
2022/03/18 10:06:10;;;;;;;12.80;9.40;;;;;;;5.22;38.20;96847.56;4896983;29;20051;-76
2022/03/18 10:08:35;;;;;;;11.50;9.00;;;;;;;4.52;39.27;96856.81;4914122;29;20044;-76
2022/03/18 10:11:14;;;;;;;21.20;9.07;;;;;;;4.42;39.77;96850.94;4914560;29;20028;-76
2022/03/18 10:14:00;;;;;;;10.32;8.50;;;;;;;4.51;40.36;96855.19;4913189;29;20059;-76
2022/03/18 10:16:38;;;;;;;14.70;8.50;;;;;;;4.13;41.21;96846.72;4912682;29;20104;-76
2022/03/18 10:19:12;;;;;;;12.80;8.32;;;;;;;3.78;41.80;96856.84;4911634;29;20070;-76
2022/03/18 10:21:55;;;;;;;16.35;9.80;;;;;;;3.88;42.35;96852.47;4913378;29;20115;-77
2022/03/18 10:24:30;;;;;;;11.35;9.00;;;;;;;3.86;42.13;96844.88;4914351;29;20039;-75
2022/03/18 10:27:20;;;;;;;18.70;8.38;;;;;;;4.04;41.55;96850.13;4897254;29;20201;-75
2022/03/18 10:29:52;;;;;;;11.52;8.50;;;;;;;4.13;41.02;96851.03;4912424;29;20028;-76
2022/03/18 10:32:18;;;;;;;12.40;8.18;;;;;;;4.15;40.99;96847.38;4881470;29;20071;-76
2022/03/18 10:37:59;;;;;;;15.15;8.45;;;;;;;4.67;39.68;96860.53;4912898;29;20040;-76
2022/03/18 10:40:35;;;;;;;11.43;8.80;;;;;;;4.86;39.59;96851.06;4895114;29;20058;-76
2022/03/18 10:43:05;;;;;;;13.75;8.38;;;;;;;4.80;39.45;96850.69;4913346;29;20484;-76
2022/03/18 10:45:30;;;;;;;12.10;7.85;;;;;;;4.32;39.98;96852.72;4889756;29;20487;-75
2022/03/18 10:48:15;;;;;;;17.17;9.32;;;;;;;4.58;40.36;96852.88;4896451;29;20048;-76
2022/03/18 10:50:40;;;;;;;11.98;8.50;;;;;;;4.46;37.95;96859.97;4918113;23;20067;-78
2022/03/18 10:53:10;;;;;;;15.63;7.68;;;;;;;4.50;37.26;96845.84;4916040;29;20040;-78
2022/03/18 10:55:43;;;;;;;11.73;8.43;;;;;;;4.64;36.19;96849.72;4900306;29;20040;-78
2022/03/18 10:58:12;;;;;;;;;;;;;;;4.81;36.09;96844.59;4901110;29;20036;-79
2022/03/18 11:00:50;;;;;;;11.70;7.47;;;;;;;4.90;36.77;96842.09;4914942;29;19925;-78
2022/03/18 11:05:46;;;;;;;11.45;7.90;;;;;;;5.23;34.55;96841.44;4930074;23;20045;-79
2022/03/18 11:08:24;;;;;;;10.23;7.35;;;;;;;5.39;34.08;96836.41;4908463;29;20044;-79
2022/03/18 11:11:15;;;;;;;8.18;6.85;;;;;;;5.09;33.93;96829.06;4892463;29;20088;-79
2022/03/18 11:14:06;;;;;;;16.48;8.68;;;;;;;4.57;34.79;96839.19;4893349;29;20068;-79
2022/03/18 11:16:36;;;;;;;10.93;7.38;;;;;;;4.58;34.54;96850.31;4906302;29;20032;-79
2022/03/18 11:19:05;;;;;;;14.55;7.75;;;;;;;4.65;34.25;96831.53;4904072;29;20032;-78
2022/03/18 11:21:40;;;;;;;12.00;7.82;;;;;;;4.93;34.07;96849.53;4903896;29;20033;-77
2022/03/18 11:24:08;;;;;;;11.70;8.10;;;;;;;4.99;34.12;96833.47;4892292;29;20134;-84
2022/03/18 11:26:34;;;;;;;14.13;7.80;;;;;;;5.05;34.42;96838.06;4897561;29;20090;-84
2022/03/18 11:29:13;;;;;;;12.43;7.45;;;;;;;4.89;34.11;96817.28;4897929;23;20037;-84
2022/03/18 11:31:38;;;;;;;10.25;6.88;;;;;;;4.97;34.14;96825.06;4901800;29;20048;-84
2022/03/18 11:34:12;;;;;;;27.77;15.18;;;;;;;4.74;34.22;96820.34;4920111;29;20037;-84
2022/03/18 11:36:43;;;;;;;13.20;7.38;;;;;;;4.54;34.24;96824.00;4907073;29;20129;-84
2022/03/18 11:39:09;;;;;;;18.00;7.13;;;;;;;4.34;34.66;96833.59;4897749;29;20072;-84
2022/03/18 11:41:57;;;;;;;12.18;7.47;;;;;;;4.16;35.50;96836.13;4911971;29;20089;-84
2022/03/18 11:44:44;;;;;;;8.63;6.32;;;;;;;4.24;35.07;96819.16;4904497;29;20072;-82
2022/03/18 11:47:31;;;;;;;7.35;6.53;;;;;;;4.45;35.04;96822.28;4901132;29;20703;-83
2022/03/18 11:49:57;;;;;;;25.02;7.53;;;;;;;4.49;34.27;96815.91;4896927;29;20040;-84
2022/03/18 11:52:22;;;;;;;8.18;6.85;;;;;;;4.10;35.64;96803.22;4898331;29;20048;-84
2022/03/18 11:55:01;;;;;;;7.85;5.93;;;;;;;4.33;35.42;96803.66;4898864;29;20047;-84
2022/03/18 11:57:31;;;;;;;11.90;6.75;;;;;;;4.20;35.52;96806.56;4889985;29;20188;-85
2022/03/18 12:00:36;;;;;;;11.23;6.15;;;;;;;4.31;35.19;96789.28;4920994;29;20045;-84